Narsaq

KL  EN  DA
ASIAQ
Weather Now GREENLAND SURVEY
Updated [WGT/WGST] Temperature [°C] Wind [m/s] Air pressure [hPa] Relative humidity [%] Precipitation [mm]
Present Wind chill Speed Max
25.02 08:00-9,80,01,1 ⇖3,31012371,0
25.02 07:00-10,2-13,51,6 ⇐3,41012400,0
25.02 06:00-11,4-15,01,6 ⇖4,51012480,0
25.02 05:00-10,0-15,83,2 ⇖6,61013490,0
25.02 04:00-10,2-17,54,7 ⇓8,11012440,3
25.02 03:00-11,4-17,73,4 ⇙5,61012430,0
25.02 02:00-10,6-17,74,4 ⇓6,91012440,0
25.02 01:00-11,0-16,83,1 ⇓6,31012400,0
25.02 00:00-10,1-16,94,2 ⇓8,01011360,0
24.02 23:00-10,9-18,95,6 ⇘9,01011470,0
24.02 22:00-10,1-18,46,3 ⇘8,81011430,0
24.02 21:00-9,8-16,64,3 ⇓8,61010440,0
24.02 20:00-9,9-17,24,9 ⇓10,51009380,0
24.02 19:00-8,6-17,58,0 ⇓14,31007340,0
24.02 18:00-8,7-16,35,8 ⇓13,31005460,0
24.02 17:00-8,7-16,66,2 ⇘11,51005460,0
24.02 16:00-8,5-17,48,0 ⇘11,81004480,0
24.02 15:00-7,7-17,19,5 ⇘12,01002480,0
24.02 14:00-6,9-14,66,5 ⇒9,81001520,3
24.02 13:00-6,9-13,85,4 ⇒8,8999490,0
24.02 12:00-6,6-12,94,6 ⇒9,4999430,0
24.02 11:00-6,6-13,45,2 ⇘8,1998440,0
24.02 10:00-7,0-15,68,3 ⇘12,8998470,0
24.02 09:00-7,8-16,99,1 ⇒12,9997620,0
24.02 08:00-7,4-14,65,5 ⇒7,9996610,0
Position: (60.91702778,-46.05905556)

[Back]